Time;durP1;ratioP1;P1;durP2;ratioP2;P2;SDS_P1;SDS_P2;PMS_P1;PMS_P2;Temp;Humidity;BMP_temperature;BMP_pressure;BME280_temperature;BME280_humidity;BME280_pressure;Samples;Min_cycle;Max_cycle;Signal;HPM_P1;HPM_P2
2021/10/24 00:01:10;;;;;;;2.58;1.30;;;;;;;16.60;60.31;102742.84;4899065;29;20056;-86
2021/10/24 00:03:35;;;;;;;2.00;1.38;;;;;;;16.59;60.38;102741.06;4882501;29;20079;-86
2021/10/24 00:06:01;;;;;;;2.30;1.55;;;;;;;16.59;60.31;102741.06;4882312;29;20084;-85
2021/10/24 00:08:27;;;;;;;2.08;1.48;;;;;;;16.58;60.19;102737.59;4882059;29;20127;-86
2021/10/24 00:10:54;;;;;;;2.00;1.40;;;;;;;16.57;60.32;102737.56;4897628;29;20049;-87
2021/10/24 00:13:20;;;;;;;2.42;1.60;;;;;;;16.56;60.21;102731.50;4882152;29;20040;-86
2021/10/24 00:15:45;;;;;;;3.28;1.80;;;;;;;16.57;60.66;102729.75;4851376;29;20443;-86
2021/10/24 00:18:11;;;;;;;2.15;1.65;;;;;;;16.57;60.23;102730.66;4882063;29;20040;-86
2021/10/24 00:20:36;;;;;;;2.63;1.70;;;;;;;16.59;60.33;102728.06;4851153;29;20024;-85
2021/10/24 00:23:02;;;;;;;2.25;1.33;;;;;;;16.56;60.27;102721.09;4866628;29;20028;-85
2021/10/24 00:25:28;;;;;;;2.63;1.65;;;;;;;16.58;60.17;102719.41;4867068;29;20037;-86
2021/10/24 00:27:54;;;;;;;2.50;1.45;;;;;;;16.58;60.03;102722.00;4883280;29;20406;-87
2021/10/24 00:30:20;;;;;;;4.55;1.50;;;;;;;16.57;60.37;102719.38;4883053;29;20033;-87
2021/10/24 00:32:46;;;;;;;1.50;1.20;;;;;;;16.56;60.35;102722.81;4867206;29;20037;-87
2021/10/24 00:35:11;;;;;;;2.28;1.60;;;;;;;16.55;60.33;102719.34;4899602;29;20103;-87
2021/10/24 00:37:36;;;;;;;1.83;1.30;;;;;;;16.55;60.38;102719.34;4867681;29;20028;-87
2021/10/24 00:40:03;;;;;;;2.38;1.50;;;;;;;16.56;60.29;102715.03;4882574;29;20029;-89
2021/10/24 00:42:32;;;;;;;2.38;1.50;;;;;;;16.56;60.31;102720.22;4881964;29;20056;-87
2021/10/24 00:44:57;;;;;;;2.55;1.42;;;;;;;16.56;60.28;102717.63;4898556;29;20024;-86
2021/10/24 00:47:23;;;;;;;2.35;1.63;;;;;;;16.56;60.04;102715.03;4851240;29;20035;-86
2021/10/24 00:49:53;;;;;;;2.58;1.40;;;;;;;16.55;60.39;102714.16;4851726;29;20104;-86
2021/10/24 00:52:19;;;;;;;2.13;1.40;;;;;;;16.56;60.14;102718.50;4881714;29;20116;-87
2021/10/24 00:54:45;;;;;;;1.80;1.40;;;;;;;16.56;60.38;102712.41;4897417;29;20075;-88
2021/10/24 00:57:11;;;;;;;2.42;1.63;;;;;;;16.56;60.14;102709.81;4898347;29;20404;-87
2021/10/24 00:59:38;;;;;;;2.03;1.33;;;;;;;16.56;60.12;102705.50;4850896;29;20116;-86
2021/10/24 01:02:03;;;;;;;1.90;1.30;;;;;;;16.57;60.07;102711.56;4881842;29;20036;-86
2021/10/24 01:04:28;;;;;;;1.83;1.48;;;;;;;16.55;60.09;102708.94;4865935;29;20389;-86
2021/10/24 01:06:54;;;;;;;1.85;1.30;;;;;;;16.57;60.08;102703.78;4865957;29;20064;-89
2021/10/24 01:09:23;;;;;;;2.83;1.48;;;;;;;16.56;60.10;102702.91;4881501;29;20058;-88
2021/10/24 01:11:50;;;;;;;2.25;1.40;;;;;;;16.55;60.09;102701.16;4881508;29;20060;-87
2021/10/24 01:14:15;;;;;;;2.28;1.52;;;;;;;16.55;60.09;102702.84;4897074;29;20060;-85
2021/10/24 01:16:42;;;;;;;3.05;1.65;;;;;;;16.53;60.22;102697.63;4865897;29;20036;-86
2021/10/24 01:19:11;;;;;;;2.65;1.58;;;;;;;16.56;60.41;102697.69;4866073;29;20035;-88
2021/10/24 01:21:36;;;;;;;2.72;1.50;;;;;;;16.55;60.10;102697.66;4881425;29;20363;-86
2021/10/24 01:24:03;;;;;;;2.40;1.35;;;;;;;16.55;60.49;102687.25;4866380;29;20076;-88
2021/10/24 01:26:29;;;;;;;2.85;1.50;;;;;;;16.54;60.17;102683.78;4884431;29;20180;-85
2021/10/24 01:28:56;;;;;;;1.85;1.40;;;;;;;16.54;60.19;102676.00;4901862;29;20028;-84
2021/10/24 01:31:22;;;;;;;2.33;1.45;;;;;;;16.54;60.05;102681.19;4885084;29;20032;-86
2021/10/24 01:33:47;;;;;;;2.03;1.50;;;;;;;16.54;60.51;102691.59;4884873;29;20160;-86
2021/10/24 01:36:13;;;;;;;2.92;1.40;;;;;;;16.54;60.21;102681.19;4853840;29;20124;-87
2021/10/24 01:38:43;;;;;;;1.90;1.50;;;;;;;16.54;60.18;102682.91;4884935;29;20035;-86
2021/10/24 01:41:10;;;;;;;1.45;1.10;;;;;;;16.53;60.27;102678.56;4884975;29;20029;-86
2021/10/24 01:43:35;;;;;;;2.17;1.50;;;;;;;16.54;60.23;102673.38;4869832;29;20032;-87
2021/10/24 01:46:01;;;;;;;2.28;1.70;;;;;;;16.54;60.15;102681.19;4869659;29;20040;-87
2021/10/24 01:48:27;;;;;;;2.17;1.40;;;;;;;16.53;60.27;102671.66;4854096;29;20043;-85
2021/10/24 01:50:55;;;;;;;2.15;1.52;;;;;;;16.53;60.03;102674.25;4868971;29;20041;-87
2021/10/24 01:53:25;;;;;;;2.10;1.33;;;;;;;16.53;59.98;102674.25;4884750;29;20363;-87
2021/10/24 01:55:51;;;;;;;2.63;1.52;;;;;;;16.54;60.21;102667.31;4869473;29;20033;-84
2021/10/24 01:58:17;;;;;;;2.05;1.45;;;;;;;16.52;60.25;102664.69;4869066;29;20041;-87
2021/10/24 02:00:43;;;;;;;1.83;1.20;;;;;;;16.53;60.37;102661.25;4869227;29;20036;-87
2021/10/24 02:03:12;;;;;;;2.40;1.42;;;;;;;16.51;60.09;102662.94;4868927;29;20025;-87
2021/10/24 02:05:39;;;;;;;1.95;1.15;;;;;;;16.51;60.19;102662.94;4901360;29;20028;-85
2021/10/24 02:08:05;;;;;;;2.97;1.50;;;;;;;16.51;60.09;102659.47;4883998;29;20480;-87
2021/10/24 02:10:31;;;;;;;1.80;1.40;;;;;;;16.49;59.88;102650.75;4900134;29;20021;-86
2021/10/24 02:12:57;;;;;;;2.00;1.30;;;;;;;16.50;60.32;102649.91;4884094;29;20533;-85
2021/10/24 02:15:22;;;;;;;2.22;1.50;;;;;;;16.50;60.02;102655.09;4868730;29;20084;-85
2021/10/24 02:17:48;;;;;;;2.05;1.45;;;;;;;16.51;60.11;102651.66;4868576;29;20028;-86
2021/10/24 02:20:14;;;;;;;1.70;1.20;;;;;;;16.49;60.11;102649.03;4868516;29;20036;-86
2021/10/24 02:22:39;;;;;;;1.35;1.10;;;;;;;16.48;60.12;102649.84;4853248;29;20032;-87
2021/10/24 02:25:06;;;;;;;1.67;1.30;;;;;;;16.48;60.19;102644.66;4868510;29;20107;-87
2021/10/24 02:27:31;;;;;;;2.33;1.45;;;;;;;16.48;60.10;102649.84;4884206;29;20047;-87
2021/10/24 02:29:56;;;;;;;2.95;1.60;;;;;;;16.48;60.27;102649.84;4883718;29;20482;-82
2021/10/24 02:32:22;;;;;;;2.05;1.38;;;;;;;16.48;59.93;102639.44;4853102;29;20426;-86
2021/10/24 02:34:48;;;;;;;1.88;1.27;;;;;;;16.48;60.18;102639.44;4868234;29;20067;-88
2021/10/24 02:37:13;;;;;;;1.95;1.25;;;;;;;16.47;60.13;102640.31;4899318;29;20037;-85
2021/10/24 02:39:39;;;;;;;2.40;1.38;;;;;;;16.47;60.27;102635.13;4883748;29;20092;-88
2021/10/24 02:42:06;;;;;;;1.80;1.30;;;;;;;16.46;60.15;102635.94;4899215;29;20032;-87
2021/10/24 02:44:31;;;;;;;1.75;1.38;;;;;;;16.46;60.08;102630.75;4868210;29;20370;-87
2021/10/24 02:46:57;;;;;;;2.05;1.30;;;;;;;16.47;60.18;102631.66;4883787;29;20043;-87
2021/10/24 02:49:23;;;;;;;2.05;1.45;;;;;;;16.47;60.22;102627.31;4884226;29;20029;-86
2021/10/24 02:51:49;;;;;;;2.83;1.58;;;;;;;16.45;60.14;102623.81;4868351;29;20506;-86
2021/10/24 02:54:15;;;;;;;1.85;1.38;;;;;;;16.45;60.12;102626.41;4852537;29;20047;-87
2021/10/24 02:56:40;;;;;;;2.88;1.50;;;;;;;16.44;59.91;102633.31;4867948;29;20040;-87
2021/10/24 02:59:06;;;;;;;2.40;1.33;;;;;;;16.44;59.96;102620.34;4883464;29;20029;-88
2021/10/24 03:01:32;;;;;;;2.65;1.30;;;;;;;16.43;60.01;102623.75;4867867;29;20028;-87
2021/10/24 03:03:57;;;;;;;2.05;1.30;;;;;;;16.44;60.17;102616.88;4900262;29;20116;-87
2021/10/24 03:06:23;;;;;;;2.25;1.50;;;;;;;16.43;60.18;102617.69;4867956;29;20032;-87
2021/10/24 03:08:48;;;;;;;1.70;1.20;;;;;;;16.42;60.03;102613.34;4867734;29;20056;-87
2021/10/24 03:11:13;;;;;;;2.35;1.48;;;;;;;16.43;60.01;102623.75;4852450;29;20084;-88
2021/10/24 03:13:39;;;;;;;2.00;1.30;;;;;;;16.43;60.12;102622.88;4852349;29;20036;-87
2021/10/24 03:16:04;;;;;;;1.92;1.40;;;;;;;16.42;60.03;102613.34;4852090;29;20142;-88
2021/10/24 03:18:30;;;;;;;2.38;1.23;;;;;;;16.43;59.98;102612.50;4899892;29;20036;-87
2021/10/24 03:20:55;;;;;;;2.10;1.45;;;;;;;16.40;59.96;102615.91;4852332;29;20092;-88
2021/10/24 03:23:20;;;;;;;2.85;1.70;;;;;;;16.40;60.05;102613.31;4867480;29;20481;-87
2021/10/24 03:25:46;;;;;;;1.60;1.30;;;;;;;16.40;60.13;102607.25;4867490;29;20111;-87
2021/10/24 03:28:12;;;;;;;1.90;1.33;;;;;;;16.40;60.20;102607.25;4867700;29;20048;-88
2021/10/24 03:30:37;;;;;;;1.88;1.38;;;;;;;16.40;60.29;102602.03;4852007;29;20052;-88
2021/10/24 03:33:03;;;;;;;2.70;1.35;;;;;;;16.39;60.11;102602.88;4867426;29;20128;-85
2021/10/24 03:35:28;;;;;;;1.58;1.25;;;;;;;16.39;60.06;102605.47;4882786;29;20031;-87
2021/10/24 03:37:54;;;;;;;2.45;1.27;;;;;;;16.38;60.12;102599.41;4867471;29;20028;-88
2021/10/24 03:40:19;;;;;;;1.92;1.40;;;;;;;16.38;60.02;102598.53;4851733;29;20060;-87
2021/10/24 03:42:45;;;;;;;1.80;1.40;;;;;;;16.37;60.13;102600.22;4882590;29;20032;-88
2021/10/24 03:45:11;;;;;;;1.70;1.30;;;;;;;16.37;60.17;102596.75;4898061;29;20020;-88
2021/10/24 03:47:37;;;;;;;2.13;1.50;;;;;;;16.35;60.33;102603.63;4866758;29;20387;-88
2021/10/24 03:50:04;;;;;;;2.03;1.48;;;;;;;16.36;60.17;102602.81;4882675;29;20056;-88
2021/10/24 03:52:29;;;;;;;1.77;1.20;;;;;;;16.36;60.19;102592.41;4899495;29;20044;-88
2021/10/24 03:54:55;;;;;;;1.80;1.50;;;;;;;16.37;59.99;102596.75;4866795;29;20028;-88
2021/10/24 03:57:20;;;;;;;1.90;1.50;;;;;;;16.36;60.13;102587.22;4851629;29;20481;-88
2021/10/24 03:59:45;;;;;;;2.10;1.50;;;;;;;16.35;60.26;102588.03;4866817;29;20021;-86
2021/10/24 04:02:11;;;;;;;2.03;1.20;;;;;;;16.35;60.06;102590.63;4882046;29;20025;-87
2021/10/24 04:04:38;;;;;;;2.80;1.50;;;;;;;16.35;60.04;102588.03;4851454;29;20501;-87
2021/10/24 04:07:12;;;;;;;1.70;1.30;;;;;;;16.35;60.17;102593.25;4882069;29;20376;-88
2021/10/24 04:09:38;;;;;;;1.55;1.33;;;;;;;16.34;59.89;102581.97;4897551;29;20040;-86
2021/10/24 04:12:04;;;;;;;1.77;1.50;;;;;;;16.32;60.04;102588.84;4882229;29;20398;-87
2021/10/24 04:14:29;;;;;;;2.00;1.30;;;;;;;16.34;60.07;102581.97;4897796;29;20036;-87
2021/10/24 04:16:55;;;;;;;2.15;1.60;;;;;;;16.33;60.10;102584.53;4851063;29;20497;-88
2021/10/24 04:19:20;;;;;;;2.28;1.33;;;;;;;16.34;59.90;102583.69;4867250;29;20036;-87
2021/10/24 04:21:46;;;;;;;1.90;1.30;;;;;;;16.34;60.10;102586.31;4884048;29;20040;-87
2021/10/24 04:24:12;;;;;;;2.38;1.30;;;;;;;16.32;59.92;102575.88;4884344;29;20036;-87
2021/10/24 04:26:37;;;;;;;2.08;1.23;;;;;;;16.32;60.07;102573.25;4900379;29;20040;-87
2021/10/24 04:29:03;;;;;;;1.60;1.30;;;;;;;16.30;60.01;102569.75;4882507;29;20097;-88
2021/10/24 04:31:29;;;;;;;1.95;1.40;;;;;;;16.31;60.12;102571.53;4867152;29;20131;-87
2021/10/24 04:33:54;;;;;;;1.77;1.23;;;;;;;16.32;60.15;102573.25;4882850;29;20056;-88
2021/10/24 04:36:20;;;;;;;2.00;1.40;;;;;;;16.30;59.88;102566.28;4883118;29;20031;-87
2021/10/24 04:38:45;;;;;;;1.63;1.10;;;;;;;16.30;60.01;102564.56;4898215;29;20028;-88
2021/10/24 04:41:11;;;;;;;2.20;1.33;;;;;;;16.29;59.87;102556.72;4882550;29;20482;-87
2021/10/24 04:43:36;;;;;;;2.70;1.50;;;;;;;16.30;59.84;102561.09;4898885;29;20028;-88
2021/10/24 04:46:02;;;;;;;2.03;1.30;;;;;;;16.30;60.03;102561.09;4866238;29;20441;-88
2021/10/24 04:48:27;;;;;;;1.27;1.10;;;;;;;16.28;60.20;102561.03;4898478;29;20076;-90
2021/10/24 04:50:52;;;;;;;1.90;1.30;;;;;;;16.29;60.08;102559.31;4881646;29;20520;-86
2021/10/24 04:53:19;;;;;;;2.30;1.27;;;;;;;16.28;59.99;102552.38;4866201;29;20035;-88
2021/10/24 04:55:45;;;;;;;1.83;1.33;;;;;;;16.27;59.99;102548.91;4866524;29;20061;-86
2021/10/24 04:58:11;;;;;;;1.70;1.30;;;;;;;16.28;60.03;102552.38;4881745;29;20081;-87
2021/10/24 05:00:36;;;;;;;1.90;1.30;;;;;;;16.25;60.15;102546.25;4883693;29;20024;-86
2021/10/24 05:03:01;;;;;;;1.77;1.30;;;;;;;16.25;60.01;102541.06;4902309;29;20056;-87
2021/10/24 05:05:27;;;;;;;1.85;1.10;;;;;;;16.26;59.97;102547.13;4870064;29;20493;-87
2021/10/24 05:07:52;;;;;;;1.70;1.30;;;;;;;16.28;60.05;102547.19;4885535;29;20187;-88
2021/10/24 05:10:18;;;;;;;1.30;1.17;;;;;;;16.27;60.27;102541.13;4885498;29;20044;-87
2021/10/24 05:12:43;;;;;;;1.98;1.40;;;;;;;16.26;59.81;102534.16;4902003;29;20024;-88
2021/10/24 05:15:10;;;;;;;1.92;1.30;;;;;;;16.26;59.74;102534.16;4885322;29;20033;-88
2021/10/24 05:17:35;;;;;;;1.55;1.10;;;;;;;16.27;60.18;102535.06;4870033;29;20033;-86
2021/10/24 05:20:01;;;;;;;1.58;1.20;;;;;;;16.25;60.06;102541.06;4885403;29;20500;-87
2021/10/24 05:22:27;;;;;;;1.83;1.27;;;;;;;16.23;59.71;102534.09;4885123;29;20509;-88
2021/10/24 05:24:52;;;;;;;1.80;1.33;;;;;;;16.26;60.10;102528.97;4900905;29;20028;-88
2021/10/24 05:27:18;;;;;;;2.08;1.20;;;;;;;16.25;59.96;102532.41;4885039;29;20028;-88
2021/10/24 05:29:43;;;;;;;2.10;1.30;;;;;;;16.23;60.00;102534.09;4884936;29;20056;-88
2021/10/24 05:32:08;;;;;;;2.45;1.40;;;;;;;16.25;60.10;102532.41;4869482;29;20438;-88
2021/10/24 05:34:34;;;;;;;1.80;1.10;;;;;;;16.23;59.78;102523.69;4884984;29;20029;-87
2021/10/24 05:37:00;;;;;;;1.80;1.20;;;;;;;16.23;59.91;102528.91;4900398;29;20525;-88
2021/10/24 05:39:25;;;;;;;1.90;1.30;;;;;;;16.22;59.97;102525.44;4885146;29;20037;-87
2021/10/24 05:41:50;;;;;;;1.83;1.35;;;;;;;16.22;59.89;102524.53;4901515;29;20541;-87
2021/10/24 05:44:19;;;;;;;2.20;1.40;;;;;;;16.22;59.97;102522.84;4854015;29;20058;-88
2021/10/24 05:46:46;;;;;;;1.60;1.10;;;;;;;16.21;59.78;102518.47;4885372;29;20036;-88
2021/10/24 05:49:12;;;;;;;2.42;1.40;;;;;;;16.22;60.10;102522.84;4869383;29;20032;-88
2021/10/24 05:51:37;;;;;;;1.55;1.27;;;;;;;16.21;59.81;102520.19;4853884;29;20037;-88
2021/10/24 05:54:02;;;;;;;1.83;1.23;;;;;;;16.20;59.87;102503.72;4884620;29;20033;-87
2021/10/24 05:56:28;;;;;;;2.00;1.20;;;;;;;16.19;60.14;102509.75;4869390;29;20031;-88
2021/10/24 05:58:54;;;;;;;1.52;1.00;;;;;;;16.20;59.75;102503.72;4884517;29;20040;-86
2021/10/24 06:01:19;;;;;;;1.55;1.20;;;;;;;16.19;59.81;102498.50;4853686;29;20039;-88
2021/10/24 06:03:45;;;;;;;2.30;1.40;;;;;;;16.21;59.71;102494.22;4884567;29;20044;-88
2021/10/24 06:06:11;;;;;;;3.65;1.50;;;;;;;16.21;59.70;102502.00;4884719;29;20083;-88
2021/10/24 06:08:36;;;;;;;1.83;1.30;;;;;;;16.21;59.88;102499.41;4884628;29;20502;-88
2021/10/24 06:14:00;;;;;;;1.75;1.30;;;;;;;16.18;59.80;102497.63;4857105;29;20036;-87
2021/10/24 06:16:26;;;;;;;1.58;1.30;;;;;;;16.19;59.88;102496.78;4901146;29;20359;-88
2021/10/24 06:18:51;;;;;;;2.10;1.10;;;;;;;16.19;60.04;102496.78;4884534;29;20033;-87
2021/10/24 06:21:17;;;;;;;1.98;1.30;;;;;;;16.19;59.77;102491.56;4884506;29;20063;-87
2021/10/24 06:23:42;;;;;;;1.58;1.10;;;;;;;16.20;59.82;102489.84;4900547;29;20036;-87
2021/10/24 06:26:08;;;;;;;1.42;1.27;;;;;;;16.20;59.66;102488.16;4868892;29;20504;-88
2021/10/24 06:28:33;;;;;;;1.35;1.10;;;;;;;16.22;59.60;102482.97;4868569;29;20504;-87
2021/10/24 06:30:59;;;;;;;1.52;1.15;;;;;;;16.22;59.64;102483.88;4883904;29;20053;-88
2021/10/24 06:33:24;;;;;;;1.73;1.10;;;;;;;16.27;59.70;102481.38;4853164;29;20116;-88
2021/10/24 06:35:50;;;;;;;1.92;1.38;;;;;;;16.33;59.60;102483.22;4883783;29;20115;-88
2021/10/24 06:38:17;;;;;;;1.25;0.98;;;;;;;16.35;59.60;102487.63;4868324;29;20095;-88
2021/10/24 06:40:43;;;;;;;2.22;1.00;;;;;;;16.37;59.61;102487.63;4899331;29;20112;-88
2021/10/24 06:43:08;;;;;;;1.50;1.05;;;;;;;16.41;59.28;102484.25;4868396;29;20037;-87
2021/10/24 06:45:34;;;;;;;1.67;1.10;;;;;;;16.43;59.53;102490.38;4852994;29;20119;-88
2021/10/24 06:47:59;;;;;;;1.50;1.20;;;;;;;16.44;59.27;102490.41;4868419;29;20453;-88
2021/10/24 06:50:24;;;;;;;1.90;1.05;;;;;;;16.45;59.47;102486.94;4868257;29;20036;-88
2021/10/24 06:52:50;;;;;;;1.70;1.30;;;;;;;16.44;59.30;102493.00;4883518;29;20462;-84
2021/10/24 06:55:16;;;;;;;1.80;1.50;;;;;;;16.47;59.13;102491.31;4883523;29;20029;-85
2021/10/24 06:57:53;;;;;;;1.63;1.50;;;;;;;16.49;59.31;102492.22;4867849;29;20025;-85
2021/10/24 07:00:21;;;;;;;2.05;1.38;;;;;;;16.49;59.39;102482.72;4867803;29;20025;-84
2021/10/24 07:02:47;;;;;;;2.03;1.48;;;;;;;16.49;59.27;102487.91;4883388;29;20033;-85
2021/10/24 07:05:12;;;;;;;1.77;1.50;;;;;;;16.52;59.34;102489.69;4852438;29;20088;-84
2021/10/24 07:07:38;;;;;;;2.83;1.73;;;;;;;16.53;59.34;102487.13;4883011;29;20049;-85
2021/10/24 07:10:05;;;;;;;2.63;1.67;;;;;;;16.54;59.39;102488.88;4898700;29;20553;-85
2021/10/24 07:12:31;;;;;;;2.25;1.52;;;;;;;16.54;59.33;102491.47;4898556;29;20028;-85
2021/10/24 07:14:56;;;;;;;2.13;1.40;;;;;;;16.55;59.08;102488.03;4898648;29;20092;-85
2021/10/24 07:17:22;;;;;;;2.28;1.63;;;;;;;16.58;59.17;102495.88;4898633;29;20393;-84
2021/10/24 07:19:47;;;;;;;2.40;1.63;;;;;;;16.59;59.30;102499.34;4867511;29;20036;-85
2021/10/24 07:22:13;;;;;;;3.72;1.90;;;;;;;16.59;59.09;102488.97;4882322;29;20043;-84
2021/10/24 07:24:38;;;;;;;2.55;1.63;;;;;;;16.58;59.06;102489.81;4898195;29;20481;-83
2021/10/24 07:27:04;;;;;;;2.63;1.70;;;;;;;16.56;59.12;102492.38;4899571;29;20029;-84
2021/10/24 07:29:29;;;;;;;3.10;1.77;;;;;;;16.56;59.28;102500.19;4882683;29;20044;-81
2021/10/24 07:31:55;;;;;;;2.50;1.58;;;;;;;16.56;59.19;102491.50;4867204;29;20040;-84
2021/10/24 07:34:20;;;;;;;3.42;1.88;;;;;;;16.54;59.46;102491.47;4851791;29;20036;-85
2021/10/24 07:36:46;;;;;;;3.35;2.00;;;;;;;16.55;59.41;102492.34;4898004;29;20123;-84
2021/10/24 07:39:11;;;;;;;2.97;2.08;;;;;;;16.56;59.23;102488.91;4867044;29;20374;-84
2021/10/24 07:41:37;;;;;;;3.40;1.90;;;;;;;16.54;59.44;102483.66;4866968;29;20127;-85
2021/10/24 07:44:05;;;;;;;3.45;1.80;;;;;;;16.56;59.22;102484.59;4882583;29;20124;-83
2021/10/24 07:46:31;;;;;;;2.70;1.77;;;;;;;16.55;59.60;102485.44;4897868;29;20500;-83
2021/10/24 07:48:56;;;;;;;2.33;1.70;;;;;;;16.58;59.33;102488.09;4866542;29;20024;-82
2021/10/24 07:51:22;;;;;;;2.92;1.83;;;;;;;16.63;59.39;102478.66;4866690;29;20128;-85
2021/10/24 07:53:47;;;;;;;3.47;1.92;;;;;;;16.73;58.96;102482.34;4851647;29;20512;-83
2021/10/24 07:56:12;;;;;;;2.10;1.45;;;;;;;16.88;58.41;102476.59;4898879;29;20027;-83
2021/10/24 07:58:39;;;;;;;3.65;2.10;;;;;;;17.01;57.97;102477.72;4866691;29;20482;-83
2021/10/24 08:01:05;;;;;;;2.75;2.03;;;;;;;17.10;57.81;102470.06;4882597;29;20028;-84
2021/10/24 08:03:31;;;;;;;2.83;1.90;;;;;;;17.14;57.61;102471.03;4882066;29;20036;-82
2021/10/24 08:05:59;;;;;;;4.18;2.10;;;;;;;17.15;57.69;102471.03;4882035;29;20043;-81
2021/10/24 08:08:24;;;;;;;3.25;1.95;;;;;;;17.17;57.69;102461.53;4882079;29;20052;-82
2021/10/24 08:10:50;;;;;;;3.58;2.05;;;;;;;17.16;57.51;102457.19;4866285;29;20462;-82
2021/10/24 08:13:16;;;;;;;3.38;2.00;;;;;;;17.17;57.60;102458.06;4897379;29;20043;-81
2021/10/24 08:15:42;;;;;;;3.47;2.08;;;;;;;17.17;57.75;102451.13;4881748;29;20042;-84
2021/10/24 08:18:08;;;;;;;2.95;2.00;;;;;;;17.16;57.80;102446.78;4850864;29;20120;-84
2021/10/24 08:20:34;;;;;;;2.58;1.92;;;;;;;17.15;57.93;102445.00;4881978;29;20036;-84
2021/10/24 08:22:59;;;;;;;4.28;2.05;;;;;;;17.17;57.81;102445.06;4882024;29;20036;-84
2021/10/24 08:25:26;;;;;;;4.38;2.03;;;;;;;17.14;57.97;102445.88;4897530;29;20076;-83
2021/10/24 08:27:53;;;;;;;2.92;2.30;;;;;;;17.12;57.98;102441.50;4866736;29;20052;-83
2021/10/24 08:30:19;;;;;;;3.10;2.13;;;;;;;17.12;58.10;102441.50;4866634;29;20489;-84
2021/10/24 08:32:44;;;;;;;3.08;2.25;;;;;;;17.07;58.20;102438.78;4866284;29;20048;-84
2021/10/24 08:35:12;;;;;;;5.55;2.35;;;;;;;17.10;58.01;102438.88;4898195;29;20028;-85
2021/10/24 08:37:37;;;;;;;2.72;1.80;;;;;;;17.09;58.15;102431.91;4866282;29;20044;-84
2021/10/24 08:40:05;;;;;;;3.35;2.15;;;;;;;17.09;57.87;102428.41;4881574;29;20028;-85
2021/10/24 08:42:33;;;;;;;4.07;2.20;;;;;;;17.08;58.01;102419.75;4896931;29;20448;-84
2021/10/24 08:44:59;;;;;;;3.50;2.08;;;;;;;17.06;58.20;102418.84;4866352;29;20025;-84
2021/10/24 08:47:26;;;;;;;2.55;1.75;;;;;;;17.04;58.17;102417.94;4898102;29;20039;-84
2021/10/24 08:49:51;;;;;;;3.40;2.08;;;;;;;17.00;58.12;102417.00;4896905;29;20064;-84
2021/10/24 08:52:19;;;;;;;2.70;1.90;;;;;;;17.00;58.15;102422.19;4866034;29;20116;-82
2021/10/24 08:54:45;;;;;;;2.95;2.10;;;;;;;16.98;58.38;102421.28;4896825;29;20164;-84
2021/10/24 08:57:10;;;;;;;2.90;2.08;;;;;;;16.97;58.21;102423.88;4896817;29;20065;-85
2021/10/24 08:59:39;;;;;;;2.75;1.90;;;;;;;16.96;58.11;102417.81;4850442;29;20048;-83
2021/10/24 09:02:08;;;;;;;3.78;2.15;;;;;;;16.95;58.08;102417.78;4881163;29;20029;-84
2021/10/24 09:04:48;;;;;;;3.53;2.00;;;;;;;16.92;58.29;102409.91;4881443;29;20033;-84
2021/10/24 09:07:14;;;;;;;3.42;2.03;;;;;;;16.91;58.32;102416.84;4881049;29;20444;-83
2021/10/24 09:09:39;;;;;;;3.30;1.92;;;;;;;16.90;58.36;102411.59;4865318;29;20136;-83
2021/10/24 09:12:05;;;;;;;2.95;1.90;;;;;;;16.88;58.56;102419.41;4865796;29;20632;-84
2021/10/24 09:14:35;;;;;;;3.65;2.03;;;;;;;16.85;58.48;102422.81;4866049;29;20529;-84
2021/10/24 09:17:00;;;;;;;2.40;1.80;;;;;;;16.84;58.06;102409.78;4898209;29;20421;-84
2021/10/24 09:19:33;;;;;;;3.33;2.25;;;;;;;16.83;58.45;102408.00;4898118;29;20029;-83
2021/10/24 09:22:15;;;;;;;3.08;1.73;;;;;;;16.83;58.78;102397.63;4881236;29;20553;-83
2021/10/24 09:25:13;;;;;;;2.97;2.05;;;;;;;16.83;58.48;102397.63;4898119;29;20043;-84
2021/10/24 09:27:52;;;;;;;3.03;1.92;;;;;;;16.81;58.73;102397.59;4896854;29;20024;-84
2021/10/24 09:30:36;;;;;;;3.13;1.98;;;;;;;16.81;58.58;102404.50;4897733;29;20029;-82
2021/10/24 09:33:04;;;;;;;3.65;1.90;;;;;;;16.81;58.47;102399.31;4881045;29;20123;-83
2021/10/24 09:35:35;;;;;;;2.75;1.98;;;;;;;16.80;58.61;102403.63;4881028;29;20119;-84
2021/10/24 09:38:06;;;;;;;3.15;2.00;;;;;;;16.79;58.85;102396.66;4897888;29;20037;-84
2021/10/24 09:40:39;;;;;;;2.80;2.08;;;;;;;16.79;58.54;102403.59;4880926;29;20021;-83
2021/10/24 09:43:29;;;;;;;2.35;2.03;;;;;;;16.78;58.93;102400.09;4880918;29;20541;-85
2021/10/24 09:45:57;;;;;;;2.28;1.70;;;;;;;16.76;58.71;102396.59;4881617;29;20036;-84
2021/10/24 09:48:25;;;;;;;2.85;1.95;;;;;;;16.77;58.72;102387.97;4884620;29;20033;-84
2021/10/24 09:50:56;;;;;;;4.45;2.10;;;;;;;16.76;58.78;102388.78;4884302;29;20040;-84
2021/10/24 09:53:35;;;;;;;3.30;1.80;;;;;;;16.75;58.77;102388.78;4868929;29;20029;-84
2021/10/24 09:56:01;;;;;;;3.38;1.92;;;;;;;16.77;58.75;102398.38;4885380;29;20461;-84
2021/10/24 09:58:29;;;;;;;2.70;1.85;;;;;;;16.75;58.78;102394.84;4884047;29;20033;-84
2021/10/24 10:00:55;;;;;;;2.70;1.90;;;;;;;16.74;58.87;102387.03;4899950;29;20032;-84
2021/10/24 10:03:22;;;;;;;3.25;1.98;;;;;;;16.75;58.68;102389.66;4868845;29;20035;-83
2021/10/24 10:05:47;;;;;;;3.25;2.00;;;;;;;16.73;58.82;102383.56;4899858;29;20036;-85
2021/10/24 10:08:18;;;;;;;2.35;1.70;;;;;;;16.75;58.96;102381.00;4883981;29;20056;-84
2021/10/24 10:11:00;;;;;;;2.53;1.60;;;;;;;16.74;58.83;102381.81;4869348;29;20080;-83
2021/10/24 10:13:28;;;;;;;1.92;1.60;;;;;;;16.74;58.73;102379.22;4883847;29;20028;-82
2021/10/24 10:15:58;;;;;;;3.97;2.08;;;;;;;16.74;58.90;102381.81;4884465;29;20055;-83
2021/10/24 10:18:24;;;;;;;2.70;1.48;;;;;;;16.73;58.90;102383.56;4883872;29;20029;-81
2021/10/24 10:20:53;;;;;;;3.05;1.70;;;;;;;16.73;58.92;102377.47;4883798;29;20028;-83
2021/10/24 10:23:22;;;;;;;2.78;1.70;;;;;;;16.73;59.05;102377.47;4883771;29;20056;-80
2021/10/24 10:25:49;;;;;;;2.78;1.70;;;;;;;16.73;58.90;102374.88;4883916;29;20059;-80
2021/10/24 10:28:42;;;;;;;2.97;1.92;;;;;;;16.74;59.04;102374.03;4883809;29;20032;-84
2021/10/24 10:31:16;;;;;;;2.97;1.98;;;;;;;16.74;58.87;102374.88;4899099;29;20024;-83
2021/10/24 10:33:56;;;;;;;3.25;1.70;;;;;;;16.74;58.85;102374.88;4852861;29;20033;-79
2021/10/24 10:36:22;;;;;;;3.03;1.90;;;;;;;16.73;59.13;102373.16;4899339;29;20378;-81
2021/10/24 10:38:47;;;;;;;2.10;1.60;;;;;;;16.75;58.70;102370.59;4852629;29;20037;-79
2021/10/24 10:41:15;;;;;;;2.85;1.90;;;;;;;16.75;58.88;102368.00;4867935;29;20032;-80
2021/10/24 10:44:00;;;;;;;2.40;1.60;;;;;;;16.74;58.76;102366.22;4898792;29;20036;-82
2021/10/24 10:46:29;;;;;;;1.95;1.50;;;;;;;16.76;58.76;102369.72;4897961;29;20103;-84
2021/10/24 10:48:54;;;;;;;2.63;1.50;;;;;;;16.75;59.05;102373.19;4868014;29;20032;-83
2021/10/24 10:51:35;;;;;;;;;;;;;;;;;;;;;
2021/10/24 10:54:03;;;;;;;2.28;1.55;;;;;;;16.76;58.84;102369.72;4900062;29;20041;-82
2021/10/24 10:56:31;;;;;;;2.30;1.45;;;;;;;16.75;59.06;102355.00;4899821;29;20028;-80
2021/10/24 10:58:59;;;;;;;3.33;1.77;;;;;;;16.76;58.87;102354.13;4898851;29;20084;-82
2021/10/24 11:01:34;;;;;;;3.58;1.90;;;;;;;16.76;58.89;102356.72;4900130;29;20085;-84
2021/10/24 11:04:20;;;;;;;2.30;1.58;;;;;;;16.75;58.68;102348.06;4883173;29;20619;-79
2021/10/24 11:06:51;;;;;;;3.13;1.92;;;;;;;16.76;58.84;102347.19;4898616;29;20036;-82
2021/10/24 11:09:45;;;;;;;2.35;1.50;;;;;;;16.77;59.08;102348.09;4882687;29;20513;-82
2021/10/24 11:12:30;;;;;;;;;;;;;;;16.76;58.83;102344.59;4898826;29;20149;-81
2021/10/24 11:15:16;;;;;;;3.30;1.80;;;;;;;16.78;58.87;102336.84;4899564;29;19911;-84
2021/10/24 11:17:46;;;;;;;3.67;1.70;;;;;;;16.77;58.95;102341.16;4882948;29;20367;-83
2021/10/24 11:20:16;;;;;;;2.10;1.52;;;;;;;16.77;58.84;102338.56;4899608;29;20024;-80
2021/10/24 11:22:57;;;;;;;3.40;1.70;;;;;;;16.79;58.74;102341.22;4882913;29;20024;-82
2021/10/24 11:25:24;;;;;;;2.45;1.60;;;;;;;16.78;58.92;102334.22;4882821;29;20041;-82
2021/10/24 11:27:50;;;;;;;2.20;1.55;;;;;;;16.77;58.87;102330.78;4882614;29;20028;-84
2021/10/24 11:30:17;;;;;;;2.47;1.60;;;;;;;16.78;59.06;102332.50;4867212;29;20035;-83